Ride Results

Jill Sheean Memorial (13-02-2010)
Ride distance: 80.0 km

Outcomes - Jill Sheean Memorial (13-02-2010)
Division No. of Entries Retired / DNE Completed Withdrawn Ineligible V/O Percentage Completed
HW 5 - 2 - - 3 40.00%
MW 17 - 14 1 2 - 82.35%
LW 18 - 16 - - 2 88.89%
JN 9 - 8 - - 1 88.89%
Totals 49 - 40 1 2 6 81.63%
Results - Jill Sheean Memorial (13-02-2010)
No. Rider Horse Place Time Leg Speeds Total
Km/Hr
H/R bpm
Heavyweight
183 Dennis Foley Jnr Wild 1 (BC) 6:08:02 15.2, 11.3 13.04 36, 44, 50 (Avg:47)
185 Dale Press Undurra Shimon 2 6:45:01 12.9, 10.9 11.85 49, 46, 50 (Avg:48)
140 Stuart King Alcheringa Shopanii Heart Rate L2 0:00:00 21.0, 11.2 - 38, 46, 65 (Avg:55)
J Noel Lockhart Ralvon Splendour Lame L2 0:00:00 13.3, 12.5 - 36, 34, 48 (Avg:41)
171 Craig Wall Bluegrass Geronimo Lame L1 0:00:00 22.8 - 38, 54 (Avg:54)
Middleweight
136 Kaye Mitchell Beer Street Bluewitch 1 (BC) 4:44:00 20.5, 14.3 16.90 32, 47, 43 (Avg:45)
49 Carolyn Foley-Jones Malricia TC Jilagic 2 4:48:00 20.6, 13.9 16.67 44, 47, 49 (Avg:48)
99 Heather Johnson Bevolin Races The Wind 3 4:58:00 20.5, 13.2 16.11 39, 52, 47 (Avg:49)
169 Brent Marshall Meganja Park Mowgli 4 6:23:00 14.2, 11.1 12.53 40, 48, 55 (Avg:51)
40 Keren Wilde BJ 5 6:25:00 13.3, 11.7 12.47 33, 50, 53 (Avg:51)
72 Vivienne Lawson Valley Springs Saarina 6 6:26:00 12.9, 11.9 12.44 30, 40, 47 (Avg:43)
76 Karin Morris Capleach Samirah 7 6:27:00 13.3, 11.5 12.40 32, 46, 48 (Avg:47)
180 Nicole Ford Highland View Stockman 8 6:41:02 12.4, 11.4 11.97 37, 48, 48 (Avg:48)
88 Anthony Bloom Boxa 9 6:44:00 13.3, 10.7 11.88 41, 43, 48 (Avg:45)
57 Tania Jago Alcheringa Shosera 9 6:44:00 12.1, 11.6 11.88 35, 49, 49 (Avg:49)
66 Steve Wilson Echo Louis Wizeer 11 6:46:01 12.9, 10.9 11.82 42, 43, 49 (Avg:46)
22 Helen Astell Splitters Creek Cypress 12 7:55:01 10.9, 9.3 10.10 27, 38, 41 (Avg:39)
139 Philip Banham Dunroamin Robbie 13 7:55:03 10.4, 9.7 10.10 36, 43, 48 (Avg:45)
188 Casey Hayes Costa Zu 14 7:55:05 10.4, 9.7 10.10 38, 50, 54 (Avg:52)
176 Greg Burford Highland View Fletcher Out of Time L2 0:00:00 12.3, 8.1 - 43, 49, 50 (Avg:49)
68 Janine Parr Harmere Natez Withdrawn L2 0:00:00 - - 43, 46, 56 (Avg:51)
142 Shayne Williams Shayelle Mi Mi Out of Time L2 0:00:00 12.3, 8.1 - 36, 46, 47 (Avg:46)
Lightweight
108 Michelle Stafford Dude 1 5:53:00 15.9, 11.8 13.60 48, 40, 46 (Avg:43)
81 Alison Simpson Sandine Balgriffen 2 (BC) 6:08:00 14.5, 11.8 13.04 42, 43, 44 (Avg:43)
17 Hannah Murray-Watton Darryl 3 6:08:01 15.2, 11.3 13.04 30, 48, 55 (Avg:51)
71 Vanessa Hoare Sandine Versacee 4 6:25:00 14.2, 11.0 12.47 39, 47, 49 (Avg:48)
51 Debbie Leary Baring Court Ivory 5 6:26:00 12.9, 11.9 12.44 42, 47, 52 (Avg:49)
1 Ann Richards Kintamani Sahir 6 6:26:02 13.6, 11.4 12.43 28, 40, 46 (Avg:43)
205 Linda Blanchard Harpo Blues 7 6:41:00 12.4, 11.4 11.97 37, 40, 48 (Avg:44)
179 Debbie Grull Lauralyn Notorious 7 6:41:00 14.2, 10.3 11.97 52, 44, 48 (Avg:46)
115 Jenny Keygan Elphyn Max 9 6:42:00 14.7, 10.0 11.94 30, 46, 51 (Avg:48)
100 Trish Smith Beaucheval Akhiran 10 6:45:00 14.2, 10.1 11.85 35, 51, 54 (Avg:52)
175 Carolyn Webster Echo Archie Wizeer 11 6:46:00 12.9, 10.9 11.82 31, 38, 40 (Avg:39)
161 Mary Parkinson Elphyn Shadow 12 6:48:00 13.1, 10.6 11.76 42, 42, 48 (Avg:45)
6 Christine King Davlyn Park Saphyre 13 7:36:00 11.7, 9.5 10.53 39, 43, 43 (Avg:43)
16 Margaret Richardson Bold Belle 13 7:36:00 11.7, 9.5 10.53 35, 40, 40 (Avg:40)
117 Penny Lasdauskas Wendy Lalani 15 7:49:00 11.3, 9.3 10.23 40, 53, 50 (Avg:51)
A Tracey Nutting Acaciavej Shadowy Prince 15 7:49:00 11.8, 9.0 10.23 40, 42, 43 (Avg:42)
53 Deborah Cole The Joker Lame L2 0:00:00 16.1, 11.7 - 28, 48, 40 (Avg:44)
77 Alison Lockhart Kantar Abia Park Ilona Lame L1 0:00:00 13.3 - 36, 40 (Avg:40)
Junior
125 Brooke Brown-Cordell Yondover Ridge Mojo 1 (BC) 4:17:00 22.6, 15.8 18.68 33, 47, 49 (Avg:48)
79 Shannon Hill Aloha Temple 2 6:12:00 13.3, 12.5 12.90 40, 44, 47 (Avg:45)
78 Brad Hill Kantarabia Park Runako 2 6:12:00 13.3, 12.5 12.90 49, 51, 53 (Avg:52)
159 Luke Plane Little Creek Azziz 4 6:45:00 12.4, 11.2 11.85 30, 48, 52 (Avg:50)
150 Emily Shadbolt Karillon Park Barkodar Bay 5 7:49:30 10.7, 9.7 10.22 36, 44, 43 (Avg:43)
135 Breaana Smith Glendhu Calypso 6 7:49:31 10.7, 9.7 10.22 39, 48, 48 (Avg:48)
203 Ellie Woodhouse Piper 7 7:55:04 10.7, 9.5 10.10 32, 40, 43 (Avg:41)
92 Blaine Astell Splitters Creek Pompeii 8 7:55:06 10.9, 9.3 10.10 34, 44, 46 (Avg:45)
18 Sheleah Astell Soli Lame L2 0:00:00 12.4, 8.4 - 30, 47, 46 (Avg:46)